Mehmet Bey — 9HUD6 — position and weather

sailwx.info

Track history (hours):
 
Tides and Currents Weather Stations Pressure Air Temp Water Temp Dewpoint Dewpoint Depression Visibility Wind Speed Wind Dir Waves Ship Positions

Mehmet Bey

Last reported at 2018-Jan-18 21:28 UTC. Time now 2018-Jan-18 21:55 UTC.
Position N 44°10' E 028°39'.

Length 131 m; draft 4.9 m.

Type: Cargo ship. MMSI: 248864000.

Date/timePositionNaut miles runAvg speedWind from/ knotsBaromVisibWave heightAir tempDewpointWater temp
2018-Jan-18 21:28N 44°10' E 028°39'0 0.0
2018-Jan-18 20:55N 44°10' E 028°39'0 0.0
2018-Jan-18 20:28N 44°10' E 028°39'0 0.0
2018-Jan-18 19:55N 44°10' E 028°39'0 0.0
2018-Jan-18 19:28N 44°10' E 028°39'0 0.0
2018-Jan-18 18:58N 44°10' E 028°39'0 0.0
2018-Jan-18 18:28N 44°10' E 028°39'0 0.0
2018-Jan-18 17:55N 44°10' E 028°39'0 0.0
2018-Jan-18 17:28N 44°10' E 028°39'0 0.0
2018-Jan-18 16:58N 44°10' E 028°39'0 0.0
2018-Jan-18 16:28N 44°10' E 028°39'0 0.0
2018-Jan-18 15:58N 44°10' E 028°39'0 0.0
2018-Jan-18 15:28N 44°10' E 028°39'0 0.0
2018-Jan-18 14:58N 44°10' E 028°39'0 0.0
2018-Jan-18 14:28N 44°10' E 028°39'0 0.0
2018-Jan-18 13:58N 44°10' E 028°39'0 0.0
2018-Jan-18 13:28N 44°10' E 028°39'0 0.0
2018-Jan-18 12:58N 44°10' E 028°39'0 0.0
2018-Jan-18 12:28N 44°10' E 028°39'0 0.0
2018-Jan-18 11:58N 44°10' E 028°39'0 0.0
2018-Jan-18 11:28N 44°10' E 028°39'0 0.0
2018-Jan-18 10:58N 44°10' E 028°39'0 0.0
2018-Jan-18 10:28N 44°10' E 028°39'0 0.0
2018-Jan-18 09:58N 44°10' E 028°39'0 0.0
2018-Jan-18 09:28N 44°10' E 028°39'0 0.0
2018-Jan-18 08:58N 44°10' E 028°39'0 0.0
2018-Jan-18 08:25N 44°10' E 028°39'0 0.0
2018-Jan-18 07:58N 44°10' E 028°39'0 0.0
2018-Jan-18 07:25N 44°10' E 028°39'0 0.0
2018-Jan-18 06:58N 44°10' E 028°39'0 0.0
2018-Jan-18 06:28N 44°10' E 028°39'0 0.0
2018-Jan-18 05:58N 44°10' E 028°39'0 0.0
2018-Jan-18 05:28N 44°10' E 028°39'0 0.0
2018-Jan-18 04:58N 44°10' E 028°39'0 0.0
2018-Jan-18 04:28N 44°10' E 028°39'0 0.0
2018-Jan-18 03:58N 44°10' E 028°39'0 0.0
2018-Jan-18 03:28N 44°10' E 028°39'0 0.0
2018-Jan-18 02:58N 44°10' E 028°39'0 0.0
2018-Jan-18 02:28N 44°10' E 028°39'0 0.0
2018-Jan-18 01:58N 44°10' E 028°39'0 0.0
2018-Jan-18 01:28N 44°10' E 028°39'0 0.0
2018-Jan-18 00:58N 44°10' E 028°39'0 0.0
2018-Jan-17 23:58N 44°10' E 028°39'0 0.1
2018-Jan-17 23:55N 44°10' E 028°39'  
2018-Jan-10 14:26N 37°55' E 024°35'3 8.0
2018-Jan-10 14:00N 37°53' E 024°32'4 8.1
2018-Jan-10 13:30N 37°50' E 024°29'4 8.3
2018-Jan-10 13:00N 37°47' E 024°25'5 8.2
2018-Jan-10 12:24N 37°44' E 024°20'7 8.3
2018-Jan-10 11:33N 37°39' E 024°14'0 8.3
2018-Jan-10 11:30N 37°38' E 024°14'4 8.6
2018-Jan-10 11:00N 37°35' E 024°11'4 8.7
2018-Jan-10 10:30N 37°31' E 024°08'6 8.6
2018-Jan-10 09:51N 37°26' E 024°04'3 8.5
2018-Jan-10 09:28N 37°23' E 024°02'8 8.1
2018-Jan-10 08:26N 37°16' E 023°57'5 8.4
2018-Jan-10 07:53N 37°12' E 023°53'4 8.1
2018-Jan-10 07:26N 37°09' E 023°51'4 8.1
2018-Jan-10 07:00N 37°06' E 023°48'4 8.2
2018-Jan-10 06:30N 37°03' E 023°46'4 7.8
2018-Jan-10 05:59N 36°60' E 023°43'5 8.3
2018-Jan-10 05:27N 36°56' E 023°40'4 8.3
2018-Jan-10 04:59N 36°52' E 023°38'32 7.7
2018-Jan-10 00:52N 36°26' E 023°16'3 6.6
2018-Jan-10 00:28N 36°24' E 023°14'4 7.5
2018-Jan-09 23:53N 36°24' E 023°08'27 7.5
2018-Jan-09 20:16N 36°19' E 022°35'4 7.5
2018-Jan-09 19:46N 36°18' E 022°30'  
Track history (hours):
 
Tides and Currents Weather Stations Pressure Air Temp Water Temp Dewpoint Dewpoint Depression Visibility Wind Speed Wind Dir Waves Ship Positions

Mehmet Bey

Last reported at 2018-Jan-18 21:28 UTC. Time now 2018-Jan-18 21:55 UTC.
Position N 44°10' E 028°39'.

Length 131 m; draft 4.9 m.

Type: Cargo ship. MMSI: 248864000.

Date/timePositionNaut miles runAvg speedWind from/ knotsBaromVisibWave heightAir tempDewpointWater temp
2018-Jan-18 21:28N 44°10' E 028°39'0 0.0
2018-Jan-18 20:55N 44°10' E 028°39'0 0.0
2018-Jan-18 20:28N 44°10' E 028°39'0 0.0
2018-Jan-18 19:55N 44°10' E 028°39'0 0.0
2018-Jan-18 19:28N 44°10' E 028°39'0 0.0
2018-Jan-18 18:58N 44°10' E 028°39'0 0.0
2018-Jan-18 18:28N 44°10' E 028°39'0 0.0
2018-Jan-18 17:55N 44°10' E 028°39'0 0.0
2018-Jan-18 17:28N 44°10' E 028°39'0 0.0
2018-Jan-18 16:58N 44°10' E 028°39'0 0.0
2018-Jan-18 16:28N 44°10' E 028°39'0 0.0
2018-Jan-18 15:58N 44°10' E 028°39'0 0.0
2018-Jan-18 15:28N 44°10' E 028°39'0 0.0
2018-Jan-18 14:58N 44°10' E 028°39'0 0.0
2018-Jan-18 14:28N 44°10' E 028°39'0 0.0
2018-Jan-18 13:58N 44°10' E 028°39'0 0.0
2018-Jan-18 13:28N 44°10' E 028°39'0 0.0
2018-Jan-18 12:58N 44°10' E 028°39'0 0.0
2018-Jan-18 12:28N 44°10' E 028°39'0 0.0
2018-Jan-18 11:58N 44°10' E 028°39'0 0.0
2018-Jan-18 11:28N 44°10' E 028°39'0 0.0
2018-Jan-18 10:58N 44°10' E 028°39'0 0.0
2018-Jan-18 10:28N 44°10' E 028°39'0 0.0
2018-Jan-18 09:58N 44°10' E 028°39'0 0.0
2018-Jan-18 09:28N 44°10' E 028°39'0 0.0
2018-Jan-18 08:58N 44°10' E 028°39'0 0.0
2018-Jan-18 08:25N 44°10' E 028°39'0 0.0
2018-Jan-18 07:58N 44°10' E 028°39'0 0.0
2018-Jan-18 07:25N 44°10' E 028°39'0 0.0
2018-Jan-18 06:58N 44°10' E 028°39'0 0.0
2018-Jan-18 06:28N 44°10' E 028°39'0 0.0
2018-Jan-18 05:58N 44°10' E 028°39'0 0.0
2018-Jan-18 05:28N 44°10' E 028°39'0 0.0
2018-Jan-18 04:58N 44°10' E 028°39'0 0.0
2018-Jan-18 04:28N 44°10' E 028°39'0 0.0
2018-Jan-18 03:58N 44°10' E 028°39'0 0.0
2018-Jan-18 03:28N 44°10' E 028°39'0 0.0
2018-Jan-18 02:58N 44°10' E 028°39'0 0.0
2018-Jan-18 02:28N 44°10' E 028°39'0 0.0
2018-Jan-18 01:58N 44°10' E 028°39'0 0.0
2018-Jan-18 01:28N 44°10' E 028°39'0 0.0
2018-Jan-18 00:58N 44°10' E 028°39'0 0.0
2018-Jan-17 23:58N 44°10' E 028°39'0 0.1
2018-Jan-17 23:55N 44°10' E 028°39'  
2018-Jan-10 14:26N 37°55' E 024°35'3 8.0
2018-Jan-10 14:00N 37°53' E 024°32'4 8.1
2018-Jan-10 13:30N 37°50' E 024°29'4 8.3
2018-Jan-10 13:00N 37°47' E 024°25'5 8.2
2018-Jan-10 12:24N 37°44' E 024°20'7 8.3
2018-Jan-10 11:33N 37°39' E 024°14'0 8.3
2018-Jan-10 11:30N 37°38' E 024°14'4 8.6
2018-Jan-10 11:00N 37°35' E 024°11'4 8.7
2018-Jan-10 10:30N 37°31' E 024°08'6 8.6
2018-Jan-10 09:51N 37°26' E 024°04'3 8.5
2018-Jan-10 09:28N 37°23' E 024°02'8 8.1
2018-Jan-10 08:26N 37°16' E 023°57'5 8.4
2018-Jan-10 07:53N 37°12' E 023°53'4 8.1
2018-Jan-10 07:26N 37°09' E 023°51'4 8.1
2018-Jan-10 07:00N 37°06' E 023°48'4 8.2
2018-Jan-10 06:30N 37°03' E 023°46'4 7.8
2018-Jan-10 05:59N 36°60' E 023°43'5 8.3
2018-Jan-10 05:27N 36°56' E 023°40'4 8.3
2018-Jan-10 04:59N 36°52' E 023°38'32 7.7
2018-Jan-10 00:52N 36°26' E 023°16'3 6.6
2018-Jan-10 00:28N 36°24' E 023°14'4 7.5
2018-Jan-09 23:53N 36°24' E 023°08'27 7.5
2018-Jan-09 20:16N 36°19' E 022°35'4 7.5
2018-Jan-09 19:46N 36°18' E 022°30'  

Dump ship's entire track history